createdAt,value
2022-12-26T00:00:00.763Z,99167.78
2022-12-26T00:02:27.580Z,99166.19
2022-12-26T00:04:54.450Z,99185.66
2022-12-26T00:07:21.305Z,99178.00
2022-12-26T00:09:47.995Z,99177.69
2022-12-26T00:12:14.637Z,99173.41
2022-12-26T00:14:41.333Z,99169.56
2022-12-26T00:17:07.943Z,99163.84
2022-12-26T00:19:34.543Z,99166.56
2022-12-26T00:22:01.109Z,99180.13
2022-12-26T00:24:27.746Z,99184.72
2022-12-26T00:26:54.314Z,99193.97
2022-12-26T00:29:20.919Z,99206.75
2022-12-26T00:31:47.735Z,99190.47
2022-12-26T00:34:14.352Z,99202.94
2022-12-26T00:36:40.940Z,99185.53
2022-12-26T00:39:07.624Z,99174.34
2022-12-26T00:41:34.233Z,99168.78
2022-12-26T00:44:00.854Z,99184.25
2022-12-26T00:46:28.057Z,99204.34
2022-12-26T00:48:54.816Z,99216.59
2022-12-26T00:51:22.216Z,99222.84
2022-12-26T00:53:48.985Z,99201.94
2022-12-26T00:56:16.206Z,99192.69
2022-12-26T00:58:42.849Z,99205.75
2022-12-26T01:01:14.692Z,99209.09
2022-12-26T01:03:41.893Z,99212.44
2022-12-26T01:06:08.598Z,99191.88
2022-12-26T01:08:35.256Z,99202.22
2022-12-26T01:11:07.827Z,99216.91
2022-12-26T01:13:34.607Z,99214.97
2022-12-26T01:16:02.257Z,99226.13
2022-12-26T01:18:28.970Z,99225.31
2022-12-26T01:21:05.690Z,99217.53
2022-12-26T01:23:32.374Z,99231.06
2022-12-26T01:26:16.980Z,99232.97
2022-12-26T01:28:45.533Z,99231.69
2022-12-26T01:31:12.198Z,99229.63
2022-12-26T01:33:38.804Z,99232.34
2022-12-26T01:36:05.797Z,99224.19
2022-12-26T01:38:32.375Z,99232.81
2022-12-26T01:41:17.590Z,99238.06
2022-12-26T01:43:53.504Z,99243.78
2022-12-26T01:46:26.041Z,99244.59
2022-12-26T01:48:54.224Z,99239.47
2022-12-26T01:51:25.289Z,99235.63
2022-12-26T01:53:56.219Z,99221.59
2022-12-26T01:56:45.777Z,99224.63
2022-12-26T01:59:19.295Z,99229.09
2022-12-26T02:01:50.316Z,99229.88
2022-12-26T02:04:40.616Z,99242.94
2022-12-26T02:07:07.779Z,99255.19
2022-12-26T02:09:35.124Z,99234.94
2022-12-26T02:12:34.934Z,99232.38
2022-12-26T02:15:15.400Z,99235.09
2022-12-26T02:17:42.574Z,99234.56
2022-12-26T02:20:29.274Z,99239.00
2022-12-26T02:22:55.834Z,99242.84
2022-12-26T02:25:40.931Z,99238.84
2022-12-26T02:28:28.875Z,99239.97
2022-12-26T02:31:19.414Z,99250.59
2022-12-26T02:34:04.436Z,99240.06
2022-12-26T02:36:30.946Z,99251.22
2022-12-26T02:38:57.458Z,99246.91
2022-12-26T02:41:31.573Z,99250.75
2022-12-26T02:44:48.664Z,99269.22
2022-12-26T02:47:22.105Z,99275.91
2022-12-26T02:50:07.242Z,99267.47
2022-12-26T02:53:24.151Z,99271.31
2022-12-26T02:56:16.064Z,99265.56
2022-12-26T02:59:20.605Z,99249.00
2022-12-26T03:02:38.212Z,99257.63
2022-12-26T03:05:48.586Z,99262.91
2022-12-26T03:08:41.158Z,99263.22
2022-12-26T03:11:26.471Z,99264.50
2022-12-26T03:13:54.549Z,99260.41
2022-12-26T03:16:42.271Z,99264.22
2022-12-26T03:19:12.271Z,99259.09
2022-12-26T03:21:45.182Z,99262.91
2022-12-26T03:24:14.358Z,99251.09
2022-12-26T03:26:48.813Z,99245.47
2022-12-26T03:29:56.826Z,99243.09
2022-12-26T03:32:23.398Z,99253.94
2022-12-26T03:34:49.962Z,99249.78
2022-12-26T03:37:47.513Z,99243.09
2022-12-26T03:40:47.212Z,99251.22
2022-12-26T03:43:55.126Z,99244.22
2022-12-26T03:47:13.949Z,99265.38
2022-12-26T03:50:05.399Z,99269.09
2022-12-26T03:53:22.377Z,99270.19
2022-12-26T03:56:33.181Z,99262.56
2022-12-26T03:59:28.091Z,99260.34
2022-12-26T04:02:16.416Z,99265.44
2022-12-26T04:05:24.701Z,99268.66
2022-12-26T04:08:19.192Z,99263.03
2022-12-26T04:11:12.172Z,99252.69
2022-12-26T04:14:09.609Z,99245.69
2022-12-26T04:16:57.566Z,99234.84
2022-12-26T04:19:52.642Z,99242.00
2022-12-26T04:22:50.959Z,99238.94
2022-12-26T04:25:50.130Z,99244.06
2022-12-26T04:28:38.220Z,99263.66
2022-12-26T04:31:34.864Z,99248.66
2022-12-26T04:34:25.808Z,99254.22
2022-12-26T04:37:20.890Z,99258.38
2022-12-26T04:40:10.259Z,99256.44
2022-12-26T04:42:57.587Z,99247.53
2022-12-26T04:45:25.216Z,99251.34
2022-12-26T04:48:10.470Z,99258.19
2022-12-26T04:50:37.106Z,99260.56
2022-12-26T04:53:03.702Z,99280.63
2022-12-26T04:55:33.282Z,99278.25
2022-12-26T04:58:00.208Z,99272.84
2022-12-26T05:00:28.259Z,99272.03
2022-12-26T05:03:19.006Z,99252.41
2022-12-26T05:06:07.063Z,99260.34
2022-12-26T05:08:52.282Z,99261.25
2022-12-26T05:11:18.851Z,99261.53
2022-12-26T05:13:45.405Z,99250.72
2022-12-26T05:16:30.387Z,99263.22
2022-12-26T05:19:15.623Z,99261.13
2022-12-26T05:22:01.689Z,99273.06
2022-12-26T05:24:56.179Z,99274.31
2022-12-26T05:27:42.089Z,99262.69
2022-12-26T05:30:09.569Z,99278.75
2022-12-26T05:32:54.536Z,99279.03
2022-12-26T05:35:21.186Z,99278.84
2022-12-26T05:37:47.806Z,99268.03
2022-12-26T05:40:14.439Z,99267.53
2022-12-26T05:42:41.273Z,99263.53
2022-12-26T05:45:09.124Z,99288.19
2022-12-26T05:47:35.763Z,99286.69
2022-12-26T05:50:02.835Z,99281.91
2022-12-26T05:52:29.533Z,99299.25
2022-12-26T05:54:56.164Z,99304.66
2022-12-26T05:57:23.002Z,99310.06
2022-12-26T05:59:49.758Z,99316.84
2022-12-26T06:02:16.551Z,99314.44
2022-12-26T06:04:43.206Z,99330.75
2022-12-26T06:07:09.828Z,99348.47
2022-12-26T06:09:36.519Z,99350.81
2022-12-26T06:12:03.379Z,99341.72
2022-12-26T06:14:30.092Z,99341.50
2022-12-26T06:16:56.653Z,99350.72
2022-12-26T06:19:23.240Z,99338.19
2022-12-26T06:21:49.814Z,99341.09
2022-12-26T06:24:16.414Z,99342.50
2022-12-26T06:26:42.991Z,99351.34
2022-12-26T06:29:09.887Z,99354.53
2022-12-26T06:31:36.860Z,99344.63
2022-12-26T06:34:03.682Z,99356.34
2022-12-26T06:36:30.432Z,99361.38
2022-12-26T06:38:58.032Z,99361.78
2022-12-26T06:41:25.294Z,99358.47
2022-12-26T06:43:52.715Z,99354.75
2022-12-26T06:46:21.997Z,99351.34
2022-12-26T06:48:49.015Z,99342.22
2022-12-26T06:51:20.276Z,99333.63
2022-12-26T06:53:47.499Z,99321.56
2022-12-26T06:56:23.393Z,99320.47
2022-12-26T06:58:58.230Z,99315.22
2022-12-26T07:01:26.194Z,99313.22
2022-12-26T07:03:54.799Z,99312.56
2022-12-26T07:06:30.732Z,99340.69
2022-12-26T07:09:00.645Z,99347.03
2022-12-26T07:11:30.670Z,99353.88
2022-12-26T07:13:57.686Z,99355.19
2022-12-26T07:16:25.270Z,99371.00
2022-12-26T07:18:54.218Z,99372.00
2022-12-26T07:21:21.680Z,99362.59
2022-12-26T07:23:48.413Z,99367.81
2022-12-26T07:26:15.032Z,99370.00
2022-12-26T07:28:41.690Z,99367.69
2022-12-26T07:31:08.479Z,99358.56
2022-12-26T07:33:35.581Z,99350.47
2022-12-26T07:36:06.504Z,99346.16
2022-12-26T07:38:34.267Z,99348.53
2022-12-26T07:41:21.062Z,99338.53
2022-12-26T07:43:47.615Z,99328.53
2022-12-26T07:46:14.242Z,99344.94
2022-12-26T07:48:40.875Z,99353.56
2022-12-26T07:51:07.531Z,99351.97
2022-12-26T07:53:34.146Z,99355.16
2022-12-26T07:56:01.220Z,99362.19
2022-12-26T07:58:28.147Z,99359.97
2022-12-26T08:00:54.819Z,99379.22
2022-12-26T08:03:21.678Z,99376.81
2022-12-26T08:05:49.308Z,99380.00
2022-12-26T08:08:16.213Z,99374.59
2022-12-26T08:10:43.165Z,99383.22
2022-12-26T08:13:10.902Z,99386.44
2022-12-26T08:15:40.957Z,99389.66
2022-12-26T08:18:07.980Z,99372.00
2022-12-26T08:20:34.593Z,99375.41
2022-12-26T08:23:01.143Z,99380.22
2022-12-26T08:25:28.078Z,99391.88
2022-12-26T08:27:54.786Z,99405.41
2022-12-26T08:30:21.383Z,99412.69
2022-12-26T08:32:48.079Z,99428.44
2022-12-26T08:35:14.834Z,99429.53
2022-12-26T08:37:41.581Z,99440.97
2022-12-26T08:40:08.717Z,99448.47
2022-12-26T08:42:44.694Z,99454.38
2022-12-26T08:45:22.268Z,99442.19
2022-12-26T08:47:48.834Z,99452.19
2022-12-26T08:50:16.232Z,99453.78
2022-12-26T08:52:43.480Z,99447.00
2022-12-26T08:55:10.370Z,99442.38
2022-12-26T08:57:37.827Z,99440.97
2022-12-26T09:00:05.732Z,99445.56
2022-12-26T09:02:32.758Z,99443.97
2022-12-26T09:04:59.419Z,99452.63
2022-12-26T09:07:26.035Z,99452.63
2022-12-26T09:09:53.717Z,99461.25
2022-12-26T09:12:20.341Z,99472.06
2022-12-26T09:14:50.219Z,99463.63
2022-12-26T09:17:17.176Z,99475.28
2022-12-26T09:19:43.806Z,99476.28
2022-12-26T09:22:33.466Z,99493.81
2022-12-26T09:25:01.888Z,99484.28
2022-12-26T09:27:29.484Z,99489.09
2022-12-26T09:29:56.081Z,99499.13
2022-12-26T09:32:22.972Z,99497.72
2022-12-26T09:34:49.769Z,99502.03
2022-12-26T09:37:16.432Z,99500.16
2022-12-26T09:39:43.014Z,99510.16
2022-12-26T09:42:28.429Z,99509.66
2022-12-26T09:45:15.299Z,99511.25
2022-12-26T09:48:19.607Z,99511.75
2022-12-26T09:50:50.660Z,99508.97
2022-12-26T09:53:26.039Z,99504.56
2022-12-26T09:56:10.774Z,99516.00
2022-12-26T09:58:45.155Z,99513.38
2022-12-26T10:01:20.891Z,99514.41
2022-12-26T10:03:56.424Z,99506.47
2022-12-26T10:06:25.859Z,99518.59
2022-12-26T10:09:18.508Z,99519.38
2022-12-26T10:12:03.736Z,99523.19
2022-12-26T10:15:01.263Z,99534.84
2022-12-26T10:17:52.450Z,99532.94
2022-12-26T10:20:37.339Z,99523.41
2022-12-26T10:23:15.005Z,99531.53
2022-12-26T10:25:47.183Z,99546.69
2022-12-26T10:28:44.158Z,99533.47
2022-12-26T10:31:21.153Z,99559.13
2022-12-26T10:33:54.158Z,99558.34
2022-12-26T10:36:35.301Z,99555.13
2022-12-26T10:39:06.014Z,99551.00
2022-12-26T10:42:01.299Z,99556.72
2022-12-26T10:44:28.261Z,99554.81
2022-12-26T10:47:09.930Z,99548.28
2022-12-26T10:49:36.731Z,99539.66
2022-12-26T10:52:04.347Z,99554.81
2022-12-26T10:54:31.449Z,99564.03
2022-12-26T10:56:59.285Z,99563.53
2022-12-26T10:59:55.557Z,99573.34
2022-12-26T11:02:32.556Z,99558.41
2022-12-26T11:05:27.209Z,99563.81
2022-12-26T11:07:57.474Z,99565.13
2022-12-26T11:10:29.503Z,99562.94
2022-12-26T11:12:59.337Z,99552.91
2022-12-26T11:15:41.929Z,99548.50
2022-12-26T11:18:32.230Z,99547.41
2022-12-26T11:21:32.375Z,99541.16
2022-12-26T11:24:20.201Z,99538.97
2022-12-26T11:26:47.248Z,99536.38
2022-12-26T11:29:22.243Z,99543.63
2022-12-26T11:32:00.136Z,99547.72
2022-12-26T11:34:36.499Z,99548.31
2022-12-26T11:37:06.079Z,99555.56
2022-12-26T11:39:38.037Z,99555.97
2022-12-26T11:42:12.794Z,99546.13
2022-12-26T11:44:45.431Z,99543.41
2022-12-26T11:47:15.004Z,99536.31
2022-12-26T11:50:03.779Z,99532.50
2022-12-26T11:52:56.621Z,99519.25
2022-12-26T11:55:26.541Z,99516.75
2022-12-26T11:58:08.114Z,99510.81
2022-12-26T12:00:50.679Z,99508.00
2022-12-26T12:03:58.788Z,99506.41
2022-12-26T12:06:40.065Z,99515.03
2022-12-26T12:09:33.118Z,99509.22
2022-12-26T12:12:17.149Z,99521.25
2022-12-26T12:14:55.328Z,99526.66
2022-12-26T12:17:55.558Z,99523.44
2022-12-26T12:20:56.114Z,99530.09
2022-12-26T12:23:32.143Z,99521.66
2022-12-26T12:26:10.189Z,99520.84
2022-12-26T12:29:10.883Z,99529.09
2022-12-26T12:31:55.905Z,99520.47
2022-12-26T12:34:25.225Z,99526.66
2022-12-26T12:37:16.199Z,99541.09
2022-12-26T12:40:01.454Z,99528.06
2022-12-26T12:42:39.999Z,99525.03
2022-12-26T12:45:19.159Z,99515.41
2022-12-26T12:48:10.216Z,99520.81
2022-12-26T12:50:57.104Z,99520.81
2022-12-26T12:53:37.510Z,99523.22
2022-12-26T12:56:41.946Z,99518.53
2022-12-26T12:59:47.230Z,99509.03
2022-12-26T13:02:26.936Z,99516.25
2022-12-26T13:05:18.036Z,99514.44
2022-12-26T13:07:52.156Z,99508.53
2022-12-26T13:10:35.151Z,99510.97
2022-12-26T13:13:18.532Z,99496.13
2022-12-26T13:15:49.425Z,99503.69
2022-12-26T13:18:20.651Z,99503.09
2022-12-26T13:21:06.345Z,99497.38
2022-12-26T13:23:54.557Z,99491.66
2022-12-26T13:26:27.101Z,99500.41
2022-12-26T13:29:06.521Z,99511.81
2022-12-26T13:31:35.697Z,99503.75
2022-12-26T13:34:04.671Z,99504.34
2022-12-26T13:36:42.484Z,99504.97
2022-12-26T13:39:27.443Z,99501.25
2022-12-26T13:42:28.040Z,99507.38
2022-12-26T13:44:55.004Z,99506.34
2022-12-26T13:47:42.028Z,99516.88
2022-12-26T13:50:49.938Z,99525.25
2022-12-26T13:53:25.995Z,99514.91
2022-12-26T13:55:58.016Z,99515.88
2022-12-26T13:58:30.430Z,99510.63
2022-12-26T14:01:17.274Z,99510.19
2022-12-26T14:04:02.056Z,99504.16
2022-12-26T14:06:49.841Z,99512.28
2022-12-26T14:09:22.285Z,99506.13
2022-12-26T14:11:59.719Z,99507.53
2022-12-26T14:14:58.915Z,99500.81
2022-12-26T14:17:56.163Z,99502.94
2022-12-26T14:20:41.716Z,99506.66
2022-12-26T14:23:29.978Z,99499.53
2022-12-26T14:26:11.117Z,99482.72
2022-12-26T14:28:58.103Z,99489.16
2022-12-26T14:31:36.833Z,99498.81
2022-12-26T14:34:27.915Z,99500.41
2022-12-26T14:37:10.756Z,99492.81
2022-12-26T14:40:01.086Z,99502.00
2022-12-26T14:42:48.569Z,99509.03
2022-12-26T14:45:20.998Z,99512.34
2022-12-26T14:47:49.640Z,99509.63
2022-12-26T14:50:39.838Z,99520.22
2022-12-26T14:53:25.028Z,99519.22
2022-12-26T14:56:15.860Z,99514.91
2022-12-26T14:58:48.894Z,99527.00
2022-12-26T15:01:15.756Z,99528.94
2022-12-26T15:03:52.190Z,99532.81
2022-12-26T15:06:18.759Z,99536.03
2022-12-26T15:08:48.394Z,99525.22
2022-12-26T15:11:51.957Z,99529.78
2022-12-26T15:14:37.461Z,99530.38
2022-12-26T15:17:27.997Z,99539.59
2022-12-26T15:20:13.237Z,99548.00
2022-12-26T15:22:46.266Z,99553.13
2022-12-26T15:25:28.185Z,99545.09
2022-12-26T15:27:57.471Z,99548.31
2022-12-26T15:30:51.148Z,99629.09
2022-12-26T15:33:58.791Z,99649.81
2022-12-26T15:36:37.560Z,99644.19
2022-12-26T15:39:15.940Z,99659.41
2022-12-26T15:41:58.224Z,99656.88
2022-12-26T15:44:27.504Z,99661.22
2022-12-26T15:47:16.200Z,99646.16
2022-12-26T15:49:53.874Z,99657.47
2022-12-26T15:52:59.044Z,99657.22
2022-12-26T15:55:47.469Z,99662.84
2022-12-26T15:58:29.229Z,99652.66
2022-12-26T16:00:56.193Z,99652.38
2022-12-26T16:03:58.199Z,99654.28
2022-12-26T16:06:36.842Z,99668.75
2022-12-26T16:09:22.098Z,99673.63
2022-12-26T16:11:57.960Z,99685.47
2022-12-26T16:14:26.457Z,99698.63
2022-12-26T16:16:53.306Z,99673.63
2022-12-26T16:19:27.237Z,99671.47
2022-12-26T16:22:21.453Z,99677.13
2022-12-26T16:24:51.500Z,99678.19
2022-12-26T16:27:24.644Z,99693.00
2022-12-26T16:30:02.090Z,99693.00
2022-12-26T16:32:36.742Z,99698.38
2022-12-26T16:35:04.542Z,99708.59
2022-12-26T16:37:32.227Z,99715.03
2022-12-26T16:40:32.887Z,99719.88
2022-12-26T16:42:59.494Z,99727.94
2022-12-26T16:45:27.850Z,99730.38
2022-12-26T16:47:55.131Z,99737.66
2022-12-26T16:50:25.569Z,99746.28
2022-12-26T16:53:34.047Z,99746.25
2022-12-26T16:56:26.584Z,99742.47
2022-12-26T16:59:17.809Z,99760.81
2022-12-26T17:02:03.139Z,99761.88
2022-12-26T17:04:30.644Z,99762.94
2022-12-26T17:07:07.149Z,99757.56
2022-12-26T17:09:44.806Z,99764.28
2022-12-26T17:12:22.711Z,99763.75
2022-12-26T17:14:51.211Z,99761.34
2022-12-26T17:17:23.738Z,99757.56
2022-12-26T17:19:54.315Z,99762.94
2022-12-26T17:22:37.432Z,99764.00
2022-12-26T17:25:30.367Z,99767.25
2022-12-26T17:28:09.542Z,99785.53
2022-12-26T17:30:41.684Z,99786.09
2022-12-26T17:33:19.427Z,99786.91
2022-12-26T17:38:44.576Z,99810.81
2022-12-26T17:41:16.072Z,99809.25
2022-12-26T17:43:43.692Z,99814.09
2022-12-26T17:46:14.320Z,99822.16
2022-12-26T17:48:42.043Z,99826.47
2022-12-26T17:51:14.873Z,99837.22
2022-12-26T17:53:46.910Z,99837.22
2022-12-26T17:56:16.897Z,99843.66
2022-12-26T17:58:43.896Z,99841.00
2022-12-26T18:01:12.773Z,99846.09
2022-12-26T18:03:43.011Z,99853.91
2022-12-26T18:06:13.836Z,99862.53
2022-12-26T18:08:41.545Z,99857.94
2022-12-26T18:11:11.224Z,99864.94
2022-12-26T18:13:38.510Z,99857.94
2022-12-26T18:16:06.178Z,99860.09
2022-12-26T18:18:38.299Z,99863.56
2022-12-26T18:21:07.283Z,99878.63
2022-12-26T18:23:33.845Z,99879.72
2022-12-26T18:26:03.725Z,99888.31
2022-12-26T18:28:30.345Z,99888.31
2022-12-26T18:30:58.106Z,99892.31
2022-12-26T18:33:25.344Z,99902.31
2022-12-26T18:35:52.079Z,99908.22
2022-12-26T18:38:20.720Z,99916.78
2022-12-26T18:40:50.698Z,99917.06
2022-12-26T18:43:18.037Z,99924.84
2022-12-26T18:45:44.722Z,99939.38
2022-12-26T18:48:16.529Z,99937.50
2022-12-26T18:50:43.878Z,99944.22
2022-12-26T18:53:10.786Z,99948.53
2022-12-26T18:55:37.611Z,99953.63
2022-12-26T18:58:04.318Z,99965.41
2022-12-26T19:00:31.003Z,99974.56
2022-12-26T19:02:57.684Z,99974.81
2022-12-26T19:05:30.945Z,99978.28
2022-12-26T19:07:59.023Z,99978.53
2022-12-26T19:10:31.709Z,99987.13
2022-12-26T19:13:05.578Z,99996.28
2022-12-26T19:15:34.996Z,99999.50
2022-12-26T19:18:03.063Z,100007.84
2022-12-26T19:20:30.167Z,100019.91
2022-12-26T19:22:57.183Z,100023.66
2022-12-26T19:25:25.742Z,100036.88
2022-12-26T19:27:52.814Z,100044.63
2022-12-26T19:30:20.351Z,100051.59
2022-12-26T19:32:47.155Z,100049.44
2022-12-26T19:35:15.315Z,100057.66
2022-12-26T19:37:42.428Z,100055.75
2022-12-26T19:40:11.165Z,100063.22
2022-12-26T19:42:38.501Z,100065.81
2022-12-26T19:45:06.633Z,100060.91
2022-12-26T19:47:34.447Z,100065.13
2022-12-26T19:50:01.502Z,100065.06
2022-12-26T19:52:28.117Z,100061.78
2022-12-26T19:54:54.765Z,100060.34
2022-12-26T19:57:23.268Z,100077.25
2022-12-26T19:59:50.695Z,100085.22
2022-12-26T20:02:17.469Z,100086.56
2022-12-26T20:04:44.216Z,100089.44
2022-12-26T20:07:10.787Z,100108.69
2022-12-26T20:09:37.414Z,100105.91
2022-12-26T20:12:04.169Z,100108.53
2022-12-26T20:14:32.655Z,100120.84
2022-12-26T20:17:06.003Z,100134.75
2022-12-26T20:19:34.409Z,100153.22
2022-12-26T20:22:01.006Z,100148.13
2022-12-26T20:24:27.540Z,100160.09
2022-12-26T20:26:54.298Z,100161.66
2022-12-26T20:29:20.905Z,100155.94
2022-12-26T20:31:47.661Z,100162.88
2022-12-26T20:34:14.362Z,100172.44
2022-12-26T20:36:41.984Z,100171.88
2022-12-26T20:39:12.816Z,100179.38
2022-12-26T20:41:39.451Z,100195.72
2022-12-26T20:44:06.285Z,100190.84
2022-12-26T20:46:34.764Z,100189.47
2022-12-26T20:49:02.546Z,100196.94
2022-12-26T20:51:36.831Z,100195.81
2022-12-26T20:54:05.393Z,100198.41
2022-12-26T20:56:31.982Z,100206.69
2022-12-26T20:58:59.712Z,100206.13
2022-12-26T21:01:28.084Z,100212.22
2022-12-26T21:03:55.820Z,100214.31
2022-12-26T21:06:28.481Z,100219.34
2022-12-26T21:08:56.544Z,100208.63
2022-12-26T21:11:29.640Z,100211.56
2022-12-26T21:13:59.147Z,100224.97
2022-12-26T21:16:37.249Z,100233.81
2022-12-26T21:19:08.039Z,100231.38
2022-12-26T21:21:41.127Z,100239.91
2022-12-26T21:24:12.195Z,100246.00
2022-12-26T21:26:40.439Z,100253.69
2022-12-26T21:29:09.260Z,100252.06
2022-12-26T21:31:37.340Z,100253.63
2022-12-26T21:34:04.526Z,100266.09
2022-12-26T21:36:31.439Z,100273.25
2022-12-26T21:38:58.383Z,100269.16
2022-12-26T21:41:25.612Z,100271.63
2022-12-26T21:43:54.588Z,100277.44
2022-12-26T21:46:21.689Z,100284.91
2022-12-26T21:48:49.928Z,100292.38
2022-12-26T21:51:18.011Z,100291.56
2022-12-26T21:53:45.379Z,100292.06
2022-12-26T21:56:14.250Z,100308.13
2022-12-26T21:59:00.195Z,100311.03
2022-12-26T22:01:27.713Z,100312.09
2022-12-26T22:04:13.880Z,100321.41
2022-12-26T22:06:41.457Z,100316.31
2022-12-26T22:09:09.293Z,100320.59
2022-12-26T22:11:54.574Z,100318.97
2022-12-26T22:14:21.769Z,100320.59
2022-12-26T22:16:52.755Z,100312.00
2022-12-26T22:19:19.423Z,100330.97
2022-12-26T22:21:45.967Z,100333.91
2022-12-26T22:24:12.623Z,100337.03
2022-12-26T22:26:39.197Z,100342.63
2022-12-26T22:29:05.735Z,100347.16
2022-12-26T22:31:34.422Z,100345.53
2022-12-26T22:34:07.641Z,100346.84
2022-12-26T22:36:35.019Z,100355.69
2022-12-26T22:39:01.784Z,100355.69
2022-12-26T22:41:29.280Z,100356.72
2022-12-26T22:43:56.053Z,100352.44
2022-12-26T22:46:22.808Z,100359.31
2022-12-26T22:48:49.799Z,100358.47
2022-12-26T22:51:23.847Z,100362.47
2022-12-26T22:53:54.487Z,100367.25
2022-12-26T22:56:21.171Z,100365.59
2022-12-26T22:58:47.918Z,100365.84
2022-12-26T23:01:17.587Z,100370.38
2022-12-26T23:03:44.475Z,100371.44
2022-12-26T23:06:32.634Z,100383.59
2022-12-26T23:09:02.122Z,100380.94
2022-12-26T23:11:34.785Z,100381.75
2022-12-26T23:14:03.556Z,100386.75
2022-12-26T23:16:39.214Z,100383.03
2022-12-26T23:19:39.267Z,100387.34
2022-12-26T23:22:06.104Z,100378.16
2022-12-26T23:24:33.179Z,100385.59
2022-12-26T23:27:24.520Z,100379.19
2022-12-26T23:30:10.484Z,100380.25
2022-12-26T23:32:38.855Z,100383.13
2022-12-26T23:35:07.122Z,100383.38
2022-12-26T23:37:33.822Z,100392.69
2022-12-26T23:40:00.357Z,100401.44
2022-12-26T23:42:26.965Z,100384.56
2022-12-26T23:44:53.611Z,100399.81
2022-12-26T23:47:20.152Z,100392.38
2022-12-26T23:49:46.676Z,100405.16
2022-12-26T23:52:13.244Z,100408.91
2022-12-26T23:54:39.811Z,100401.88
2022-12-26T23:57:06.381Z,100407.47
2022-12-26T23:59:32.946Z,100407.69
